Time;durP1;ratioP1;P1;durP2;ratioP2;P2;SDS_P1;SDS_P2;PMS_P1;PMS_P2;Temp;Humidity;BMP_temperature;BMP_pressure;BME280_temperature;BME280_humidity;BME280_pressure;Samples;Min_cycle;Max_cycle;Signal;HPM_P1;HPM_P2
2023/01/05 00:00:22;;;;;;;2.45;1.40;;;;;;;9.44;84.07;99620.88;1696799;84;21486;-84
2023/01/05 00:02:50;;;;;;;2.25;1.37;;;;;;;9.45;84.00;99613.47;1694701;84;21123;-84
2023/01/05 00:05:19;;;;;;;4.90;1.42;;;;;;;9.46;83.92;99613.49;1685712;83;21427;-85
2023/01/05 00:07:46;;;;;;;2.62;1.37;;;;;;;9.47;83.85;99606.48;1686537;84;21083;-85
2023/01/05 00:22:29;;;;;;;2.30;1.37;;;;;;;9.48;83.84;99614.39;1638144;87;21129;-85
2023/01/05 00:23:51;;;;;;;4.53;1.80;;;;;;;9.54;83.80;99614.89;1687129;82;21055;-85
2023/01/05 00:26:19;;;;;;;6.22;1.80;;;;;;;9.51;83.77;99606.52;1665193;85;21137;-90
2023/01/05 00:28:46;;;;;;;2.52;1.50;;;;;;;9.49;83.83;99608.25;1649739;85;21862;-90
2023/01/05 00:31:13;;;;;;;7.28;2.05;;;;;;;9.37;83.89;99589.75;1648596;86;21092;-84
2023/01/05 00:33:48;;;;;;;5.60;1.70;;;;;;;9.48;83.99;99599.94;1637619;87;21071;-90
2023/01/05 00:36:16;;;;;;;4.70;1.57;;;;;;;9.50;84.01;99601.28;1699891;84;21069;-85
2023/01/05 00:38:51;;;;;;;5.75;1.90;;;;;;;9.50;83.96;99604.77;1710957;82;21029;-86
2023/01/05 00:41:37;;;;;;;5.00;1.98;;;;;;;9.52;83.98;99606.11;1722670;82;21776;-90
2023/01/05 00:44:11;;;;;;;7.05;2.15;;;;;;;9.53;84.01;99604.82;1652108;85;21136;-89
2023/01/05 00:46:44;;;;;;;6.67;2.05;;;;;;;9.54;84.03;99603.94;1625656;87;21094;-84
2023/01/05 00:49:17;;;;;;;6.83;2.35;;;;;;;9.54;83.95;99592.56;1651825;86;21084;-84
2023/01/05 00:51:44;;;;;;;;;;;;;;;9.54;84.00;99586.86;1654978;86;21095;-89
2023/01/05 00:54:11;;;;;;;7.17;2.50;;;;;;;9.56;83.98;99592.14;1653401;85;21174;-84
2023/01/05 00:56:45;;;;;;;5.53;2.08;;;;;;;9.56;83.93;99589.95;1648086;85;21616;-84
2023/01/05 00:59:15;;;;;;;7.97;2.22;;;;;;;9.52;83.93;99591.22;1631054;84;21091;-84
2023/01/05 01:01:50;;;;;;;6.70;2.02;;;;;;;9.52;84.02;99592.98;1704032;83;21948;-85
2023/01/05 01:04:17;;;;;;;7.53;2.25;;;;;;;9.52;84.01;99597.79;1701546;83;21105;-85
2023/01/05 01:06:44;;;;;;;10.55;2.45;;;;;;;9.52;84.03;99594.30;1704847;83;21740;-85
2023/01/05 01:09:13;;;;;;;5.90;2.02;;;;;;;9.52;84.02;99598.23;1707369;82;21061;-84
2023/01/05 01:11:39;;;;;;;7.45;2.33;;;;;;;9.54;84.05;99597.81;1714909;82;21545;-86
2023/01/05 01:14:25;;;;;;;7.80;2.42;;;;;;;9.56;84.06;99598.70;1704942;83;21524;-85
2023/01/05 01:16:51;;;;;;;15.45;2.95;;;;;;;9.59;84.01;99591.28;1706531;82;21546;-84
2023/01/05 01:19:22;;;;;;;6.12;2.02;;;;;;;9.61;84.06;99587.82;1704462;83;21754;-85
2023/01/05 01:21:49;;;;;;;9.38;2.42;;;;;;;9.63;84.02;99597.00;1705189;83;21079;-84
2023/01/05 01:24:25;;;;;;;9.05;2.37;;;;;;;9.64;84.01;99600.09;1711079;82;21526;-84
2023/01/05 01:26:52;;;;;;;8.23;2.50;;;;;;;9.64;84.01;99608.84;1712253;82;21076;-84
2023/01/05 01:29:21;;;;;;;6.03;2.17;;;;;;;9.63;83.98;99600.53;1708969;83;21549;-84
2023/01/05 01:31:48;;;;;;;8.15;2.17;;;;;;;9.62;83.97;99593.95;1707953;83;22571;-84
2023/01/05 01:34:15;;;;;;;8.40;2.72;;;;;;;9.61;83.99;99592.17;1706989;83;21123;-83
2023/01/05 01:36:43;;;;;;;9.10;2.12;;;;;;;9.61;84.05;99601.37;1707633;83;21718;-83
2023/01/05 01:39:13;;;;;;;5.12;2.05;;;;;;;9.61;84.06;99595.70;1707908;83;21580;-83
2023/01/05 01:41:40;;;;;;;9.20;2.70;;;;;;;9.61;84.12;99589.55;1713279;82;22021;-84
2023/01/05 01:44:57;;;;;;;6.33;1.62;;;;;;;9.60;84.04;99588.67;1708405;83;21762;-90
2023/01/05 01:47:36;;;;;;;6.53;2.12;;;;;;;9.58;84.04;99586.46;1714454;82;21055;-90
2023/01/05 01:50:08;;;;;;;7.25;2.05;;;;;;;9.59;84.04;99580.77;1722054;82;21600;-89
2023/01/05 01:52:35;;;;;;;7.47;2.40;;;;;;;9.54;83.99;99582.92;1708338;83;21123;-89
2023/01/05 01:55:02;;;;;;;7.03;1.98;;;;;;;9.54;84.04;99580.30;1707608;83;21099;-89
2023/01/05 01:57:35;;;;;;;7.17;2.22;;;;;;;9.57;84.05;99589.07;1711333;83;21751;-88
2023/01/05 02:00:05;;;;;;;5.03;1.80;;;;;;;9.57;84.03;99577.25;1714006;82;21236;-89
2023/01/05 02:02:53;;;;;;;7.75;1.90;;;;;;;9.56;83.99;99580.76;1709291;83;21087;-89
2023/01/05 02:05:28;;;;;;;7.35;2.05;;;;;;;9.54;83.91;99577.67;1708371;83;21498;-89
2023/01/05 02:07:56;;;;;;;7.58;1.90;;;;;;;9.54;83.94;99575.04;1708603;83;21557;-89
2023/01/05 02:10:30;;;;;;;7.75;1.80;;;;;;;9.52;83.93;99570.65;1708510;83;21775;-89
2023/01/05 02:13:35;;;;;;;7.95;1.70;;;;;;;9.52;83.92;99570.65;1710169;82;21056;-88
2023/01/05 02:16:22;;;;;;;9.38;2.25;;;;;;;9.52;83.92;99571.52;1716943;82;21828;-88
2023/01/05 02:19:07;;;;;;;6.30;2.05;;;;;;;9.52;83.95;99572.83;1720569;82;21327;-89
2023/01/05 02:22:07;;;;;;;6.85;1.92;;;;;;;9.51;83.93;99555.30;1710281;83;21083;-90
2023/01/05 02:25:03;;;;;;;10.25;1.70;;;;;;;9.49;83.83;99559.66;1708151;83;21868;-90
2023/01/05 02:27:35;;;;;;;12.40;4.25;;;;;;;9.47;83.77;99558.77;1734889;82;21047;-88
2023/01/05 02:30:58;;;;;;;9.10;2.70;;;;;;;9.45;83.80;99555.69;1714069;82;21064;-91
2023/01/05 02:34:03;;;;;;;8.53;2.40;;;;;;;9.46;83.82;99555.70;1713969;82;21476;-89
2023/01/05 02:36:58;;;;;;;8.28;2.27;;;;;;;9.46;83.73;99555.70;1708311;83;21020;-89
2023/01/05 02:39:58;;;;;;;5.37;1.82;;;;;;;9.47;83.79;99556.58;1721501;82;22628;-89
2023/01/05 02:42:26;;;;;;;7.53;1.85;;;;;;;9.47;83.81;99552.20;1709372;83;21075;-89
2023/01/05 02:44:53;;;;;;;4.58;1.47;;;;;;;9.46;83.78;99557.42;1686874;83;21128;-90
2023/01/05 02:47:42;;;;;;;4.87;1.75;;;;;;;9.45;83.78;99552.62;1712903;82;21480;-90
2023/01/05 02:50:52;;;;;;;7.12;2.00;;;;;;;9.44;83.82;99549.56;1712927;83;21117;-90
2023/01/05 02:53:33;;;;;;;5.20;1.42;;;;;;;9.45;83.81;99547.80;1706423;82;22070;-90
2023/01/05 02:56:13;;;;;;;4.58;1.47;;;;;;;9.45;83.86;99552.62;1707260;83;21077;-85
2023/01/05 02:59:02;;;;;;;3.12;1.30;;;;;;;9.46;83.85;99545.61;1708306;83;21067;-85
2023/01/05 03:01:39;;;;;;;2.17;1.40;;;;;;;9.43;83.74;99547.78;1708264;83;21580;-90
2023/01/05 03:04:30;;;;;;;7.62;1.85;;;;;;;9.37;83.67;99539.84;1731986;82;21078;-90
2023/01/05 03:08:08;;;;;;;6.95;1.70;;;;;;;9.31;83.54;99539.80;1723323;82;21770;-90
2023/01/05 03:13:44;;;;;;;7.40;1.80;;;;;;;9.26;83.65;99529.66;1717161;83;21811;-84
2023/01/05 03:16:16;;;;;;;4.35;1.40;;;;;;;9.24;83.62;99531.40;1715119;83;21797;-83
2023/01/05 03:37:17;;;;;;;3.02;1.15;;;;;;;9.18;84.12;99537.88;1723547;82;21780;-84
2023/01/05 03:39:59;;;;;;;2.90;1.30;;;;;;;9.21;84.20;99533.98;1715954;83;21562;-92
2023/01/05 03:42:34;;;;;;;3.72;1.25;;;;;;;9.12;84.21;99517.68;1731708;82;21035;-90
2023/01/05 03:45:07;;;;;;;4.65;1.25;;;;;;;9.24;84.26;99536.65;1719407;83;21108;-85
2023/01/05 03:47:41;;;;;;;4.10;1.25;;;;;;;9.28;84.27;99535.81;1714867;83;21140;-85
2023/01/05 03:50:20;;;;;;;2.10;0.90;;;;;;;9.29;84.17;99530.99;1714707;83;21779;-90
2023/01/05 03:52:54;;;;;;;3.77;1.25;;;;;;;9.28;84.17;99534.05;1714860;83;21107;-89
2023/01/05 03:55:21;;;;;;;3.22;1.17;;;;;;;9.31;84.17;99534.10;1729222;82;21087;-89
2023/01/05 03:57:48;;;;;;;3.50;1.20;;;;;;;9.33;84.08;99526.25;1714726;83;21586;-90
2023/01/05 04:00:24;;;;;;;2.25;0.90;;;;;;;9.32;84.02;99527.09;1715226;83;21581;-90
2023/01/05 04:03:09;;;;;;;3.27;1.35;;;;;;;9.32;84.00;99529.28;1721586;82;21780;-89
2023/01/05 04:05:36;;;;;;;2.58;0.95;;;;;;;9.34;84.00;99529.30;1739287;82;21118;-84
2023/01/05 04:08:03;;;;;;;2.62;0.95;;;;;;;9.35;84.00;99532.39;1737676;82;21897;-84
2023/01/05 04:10:36;;;;;;;4.05;1.22;;;;;;;9.36;83.94;99529.33;1725140;82;21090;-90
2023/01/05 04:13:04;;;;;;;4.33;1.10;;;;;;;9.34;83.92;99530.17;1718101;82;21125;-84
2023/01/05 04:15:39;;;;;;;2.40;1.10;;;;;;;9.34;83.87;99529.30;1721755;82;21786;-89
2023/01/05 04:18:06;;;;;;;2.87;1.37;;;;;;;9.33;83.88;99526.25;1715205;83;21071;-84
2023/01/05 04:20:40;;;;;;;2.02;0.90;;;;;;;9.31;83.80;99528.85;1720327;82;21047;-90
2023/01/05 04:23:07;;;;;;;2.35;1.12;;;;;;;9.31;83.84;99531.92;1686972;83;21052;-90
2023/01/05 04:25:40;;;;;;;1.20;0.80;;;;;;;9.30;83.92;99532.33;1719782;82;21293;-84
2023/01/05 04:28:08;;;;;;;3.80;1.13;;;;;;;9.32;84.03;99530.59;1708599;83;22655;-84
2023/01/05 04:30:50;;;;;;;1.02;0.60;;;;;;;9.35;83.98;99532.39;1711173;83;21325;-90
2023/01/05 04:33:26;;;;;;;1.95;0.93;;;;;;;9.33;83.97;99526.25;1704610;83;21114;-87
2023/01/05 04:35:53;;;;;;;2.52;1.00;;;;;;;9.34;83.93;99535.87;1681023;84;21063;-90
2023/01/05 04:38:21;;;;;;;1.22;0.88;;;;;;;9.34;83.99;99530.61;1699507;83;21103;-84
2023/01/05 04:40:49;;;;;;;1.37;0.65;;;;;;;9.35;84.01;99536.33;1701806;83;21829;-91
2023/01/05 04:43:18;;;;;;;1.30;0.80;;;;;;;9.37;84.02;99538.98;1686191;83;21062;-85
2023/01/05 04:45:54;;;;;;;1.47;0.70;;;;;;;9.37;83.98;99534.59;1703355;83;21136;-90
2023/01/05 04:48:21;;;;;;;1.22;0.62;;;;;;;9.40;84.04;99537.23;1704185;83;21556;-85
2023/01/05 04:50:54;;;;;;;0.57;0.55;;;;;;;9.41;84.00;99532.89;1713569;83;21457;-84
2023/01/05 04:53:22;;;;;;;0.75;0.45;;;;;;;9.39;83.97;99540.74;1708809;83;21831;-84
2023/01/05 04:55:49;;;;;;;1.60;0.60;;;;;;;9.34;83.96;99538.05;1693740;83;21042;-84
2023/01/05 04:58:18;;;;;;;1.25;0.60;;;;;;;9.34;84.13;99537.18;1680819;83;22119;-85
2023/01/05 05:00:57;;;;;;;0.55;0.55;;;;;;;9.35;84.16;99545.52;1712156;83;21700;-87
2023/01/05 05:03:29;;;;;;;3.35;1.02;;;;;;;9.36;84.15;99547.27;1690960;84;21887;-85
2023/01/05 05:05:58;;;;;;;1.20;0.82;;;;;;;9.38;84.12;99548.60;1704103;83;21769;-84
2023/01/05 05:08:28;;;;;;;1.70;0.80;;;;;;;9.38;84.13;99549.91;1698060;84;21058;-84
2023/01/05 05:10:55;;;;;;;2.75;0.60;;;;;;;9.36;84.09;99564.34;1691371;83;21133;-81
2023/01/05 05:13:21;;;;;;;0.75;0.60;;;;;;;9.32;83.96;99568.67;1697546;83;21085;-82
2023/01/05 05:15:48;;;;;;;0.85;0.50;;;;;;;9.26;83.86;99565.98;1703884;82;21053;-82
2023/01/05 05:18:15;;;;;;;1.75;0.82;;;;;;;9.21;83.69;99565.48;1696833;83;21806;-83
2023/01/05 05:20:43;;;;;;;0.82;0.60;;;;;;;9.14;83.46;99568.05;1699972;83;21096;-83
2023/01/05 05:23:10;;;;;;;1.42;0.70;;;;;;;9.08;83.39;99577.14;1706702;83;21085;-81
2023/01/05 05:25:37;;;;;;;2.33;0.95;;;;;;;9.02;83.16;99570.52;1696992;83;21767;-82
2023/01/05 05:28:04;;;;;;;1.42;1.00;;;;;;;8.94;83.06;99567.80;1689992;84;21055;-81
2023/01/05 05:30:33;;;;;;;2.77;1.00;;;;;;;8.91;82.84;99573.44;1693387;83;21850;-80
2023/01/05 05:33:01;;;;;;;1.95;1.00;;;;;;;8.86;82.75;99576.02;1684172;83;21736;-87
2023/01/05 05:35:28;;;;;;;3.17;1.02;;;;;;;8.84;82.64;99579.46;1698721;83;21100;-81
2023/01/05 05:37:55;;;;;;;7.05;3.22;;;;;;;8.82;82.60;99583.81;1691703;84;21047;-80
2023/01/05 05:40:22;;;;;;;2.83;0.93;;;;;;;8.78;82.47;99580.70;1693879;84;21112;-80
2023/01/05 05:42:49;;;;;;;2.52;1.10;;;;;;;8.70;82.40;99580.16;1692691;84;21976;-80
2023/01/05 05:45:16;;;;;;;6.33;3.00;;;;;;;8.60;82.17;99590.09;1687597;83;21324;-83
2023/01/05 05:47:43;;;;;;;5.05;2.27;;;;;;;8.51;82.17;99586.02;1685249;84;21075;-82
2023/01/05 05:50:11;;;;;;;6.42;2.62;;;;;;;8.48;82.29;99582.90;1693224;83;21665;-86
2023/01/05 05:52:38;;;;;;;5.20;1.62;;;;;;;8.49;82.46;99576.81;1691933;84;21981;-82
2023/01/05 05:55:07;;;;;;;6.75;3.47;;;;;;;8.50;82.40;99585.14;1684213;84;22551;-81
2023/01/05 05:57:34;;;;;;;7.45;2.05;;;;;;;8.50;82.32;99586.45;1688432;83;21347;-80
2023/01/05 06:00:01;;;;;;;6.00;3.55;;;;;;;8.48;82.16;99586.83;1687556;83;21047;-81
2023/01/05 06:02:28;;;;;;;4.10;1.90;;;;;;;8.44;82.06;99591.59;1689355;83;21131;-83
2023/01/05 06:04:55;;;;;;;11.95;2.65;;;;;;;8.47;82.17;99600.83;1694042;84;21023;-85
2023/01/05 06:07:23;;;;;;;6.42;2.22;;;;;;;8.48;82.08;99596.45;1684769;83;21832;-84
2023/01/05 06:10:09;;;;;;;26.30;15.58;;;;;;;8.50;82.06;99592.11;1687445;83;21085;-86
2023/01/05 06:12:36;;;;;;;13.35;7.60;;;;;;;8.52;82.06;99596.53;1681148;83;21625;-87
2023/01/05 06:15:03;;;;;;;13.38;7.00;;;;;;;8.56;81.97;99588.28;1691078;83;21090;-88
2023/01/05 06:17:40;;;;;;;14.00;7.28;;;;;;;8.59;81.99;99597.92;1678187;84;21075;-87
2023/01/05 06:20:21;;;;;;;105.80;63.52;;;;;;;8.60;81.84;99599.70;1681767;83;21051;-88
2023/01/05 06:22:49;;;;;;;75.57;46.33;;;;;;;8.60;81.79;99603.64;1667095;84;21122;-84
2023/01/05 06:25:16;;;;;;;43.02;23.95;;;;;;;8.59;81.71;99606.67;1689357;83;21127;-85
2023/01/05 06:27:45;;;;;;;30.23;15.83;;;;;;;8.59;81.78;99609.30;1698977;83;21069;-89
2023/01/05 06:30:32;;;;;;;19.32;10.08;;;;;;;8.58;81.75;99608.86;1704883;83;21081;-87
2023/01/05 06:33:04;;;;;;;35.08;19.42;;;;;;;8.58;81.79;99610.17;1659240;84;21739;-88
2023/01/05 06:35:39;;;;;;;32.30;19.42;;;;;;;8.55;81.79;99614.05;1658744;85;21548;-88
2023/01/05 06:38:09;;;;;;;10.10;4.20;;;;;;;8.52;81.82;99617.52;1662072;85;21548;-89
2023/01/05 06:40:43;;;;;;;11.90;4.42;;;;;;;8.49;81.86;99610.03;1674559;83;21154;-85
2023/01/05 06:43:08;;;;;;;7.25;3.80;;;;;;;8.47;81.85;99611.75;1677052;84;21117;-85
2023/01/05 06:45:35;;;;;;;18.60;11.08;;;;;;;8.44;81.88;99611.25;1697561;84;21758;-85
2023/01/05 06:48:03;;;;;;;8.43;4.97;;;;;;;8.43;81.93;99617.38;1699021;84;21665;-85
2023/01/05 06:50:38;;;;;;;10.40;6.05;;;;;;;8.42;81.90;99622.16;1696931;83;21565;-89
2023/01/05 06:53:05;;;;;;;6.90;3.77;;;;;;;8.38;81.83;99621.19;1695327;83;21095;-85
2023/01/05 06:55:32;;;;;;;4.80;2.12;;;;;;;8.37;81.88;99623.38;1698461;83;21063;-88
2023/01/05 06:58:17;;;;;;;6.90;3.37;;;;;;;8.36;81.88;99623.34;1699159;84;21754;-90
2023/01/05 07:00:49;;;;;;;9.18;4.05;;;;;;;8.31;81.78;99628.94;1697451;84;21075;-88
2023/01/05 07:03:18;;;;;;;8.33;5.20;;;;;;;8.27;81.82;99629.31;1698359;84;21581;-84
2023/01/05 07:05:45;;;;;;;11.12;7.37;;;;;;;8.24;81.86;99630.59;1697078;83;21076;-85
2023/01/05 07:08:39;;;;;;;5.80;3.70;;;;;;;8.23;81.88;99634.49;1695855;83;21087;-88
2023/01/05 07:11:06;;;;;;;21.77;15.03;;;;;;;8.20;81.87;99635.74;1698576;84;21777;-85
2023/01/05 07:13:48;;;;;;;5.12;3.40;;;;;;;8.20;81.93;99636.61;1697741;83;21068;-88
2023/01/05 07:16:27;;;;;;;5.37;2.27;;;;;;;8.21;81.84;99641.45;1667566;84;21092;-88
2023/01/05 07:19:00;;;;;;;4.30;2.35;;;;;;;8.16;81.73;99634.41;1698098;83;21060;-85
2023/01/05 07:21:27;;;;;;;10.05;4.90;;;;;;;8.19;81.66;99649.28;1694738;84;21067;-85
2023/01/05 07:23:53;;;;;;;2.85;1.57;;;;;;;8.17;81.53;99644.45;1698730;83;21769;-85
2023/01/05 07:26:20;;;;;;;6.22;3.47;;;;;;;8.15;81.48;99656.21;1711641;83;21114;-85
2023/01/05 07:28:48;;;;;;;2.02;1.00;;;;;;;8.13;81.35;99657.93;1698890;83;21998;-85
2023/01/05 07:31:15;;;;;;;10.05;5.33;;;;;;;8.11;81.19;99647.84;1700446;82;21079;-85
2023/01/05 07:33:42;;;;;;;5.65;3.45;;;;;;;8.09;81.07;99657.83;1700198;83;21110;-85
2023/01/05 07:36:09;;;;;;;3.77;1.25;;;;;;;8.05;80.97;99664.79;1696438;83;21771;-85
2023/01/05 07:38:38;;;;;;;2.95;1.27;;;;;;;8.01;80.92;99661.62;1696294;82;21072;-84
2023/01/05 07:41:05;;;;;;;5.28;2.45;;;;;;;7.98;80.79;99665.09;1702281;83;21586;-85
2023/01/05 07:43:32;;;;;;;8.80;4.85;;;;;;;7.95;80.84;99667.64;1702525;83;21059;-85
2023/01/05 07:45:59;;;;;;;3.25;1.87;;;;;;;7.94;80.95;99668.52;1691665;82;21072;-85
2023/01/05 07:48:28;;;;;;;3.92;1.95;;;;;;;7.95;80.97;99670.27;1696395;83;23001;-85
2023/01/05 07:51:21;;;;;;;2.33;1.50;;;;;;;7.94;80.83;99669.83;1694404;84;21038;-88
2023/01/05 07:53:57;;;;;;;6.30;3.63;;;;;;;7.91;80.72;99671.06;1696863;84;21411;-88
2023/01/05 07:56:33;;;;;;;11.00;5.33;;;;;;;7.89;80.60;99673.22;1696017;84;21073;-88
2023/01/05 07:59:11;;;;;;;36.75;21.55;;;;;;;7.87;80.59;99678.86;1692619;84;21074;-88
2023/01/05 08:01:38;;;;;;;13.30;6.78;;;;;;;7.88;80.69;99681.92;1710469;82;21728;-88
2023/01/05 08:04:05;;;;;;;19.57;11.75;;;;;;;7.89;80.72;99681.95;1696029;83;21071;-88
2023/01/05 08:06:33;;;;;;;12.35;7.87;;;;;;;7.90;80.74;99685.05;1706880;82;21107;-85
2023/01/05 08:12:14;;;;;;;13.65;10.08;;;;;;;7.95;80.62;99687.73;1727179;83;21048;-88
2023/01/05 08:15:18;;;;;;;22.95;20.48;;;;;;;7.98;80.58;99693.05;1718963;83;21821;-88
2023/01/05 08:17:50;;;;;;;12.18;11.05;;;;;;;7.99;80.59;99686.93;1700605;84;21136;-88
2023/01/05 08:20:24;;;;;;;6.40;5.15;;;;;;;8.02;80.60;99694.86;1696977;83;21543;-89
2023/01/05 08:23:51;;;;;;;8.03;5.33;;;;;;;8.04;80.53;99690.52;1696254;84;21049;-88
2023/01/05 08:26:25;;;;;;;6.28;3.50;;;;;;;8.03;80.34;99686.13;1698214;83;21350;-88
2023/01/05 08:29:00;;;;;;;5.72;5.17;;;;;;;8.02;80.23;99698.79;1713377;83;21897;-88
2023/01/05 08:31:36;;;;;;;3.27;1.87;;;;;;;8.02;80.30;99699.23;1713198;83;22071;-89
2023/01/05 08:34:04;;;;;;;3.15;2.10;;;;;;;8.05;80.29;99703.19;1693756;82;21102;-88
2023/01/05 08:36:59;;;;;;;3.33;1.62;;;;;;;8.06;80.14;99707.16;1737018;82;21038;-89
2023/01/05 08:39:28;;;;;;;2.52;1.37;;;;;;;8.06;79.98;99705.84;1699086;83;21082;-84
2023/01/05 08:41:56;;;;;;;2.90;1.30;;;;;;;8.06;80.01;99710.22;1715227;83;21772;-87
2023/01/05 08:44:25;;;;;;;2.30;1.20;;;;;;;8.05;80.01;99705.81;1714246;83;21058;-84
2023/01/05 08:46:58;;;;;;;4.62;1.70;;;;;;;8.05;79.94;99703.19;1707612;82;21032;-87
2023/01/05 08:49:31;;;;;;;3.85;1.57;;;;;;;8.05;79.91;99709.74;1713488;82;21061;-87
2023/01/05 08:52:00;;;;;;;5.05;1.30;;;;;;;8.04;79.88;99703.63;1729897;82;21540;-85
2023/01/05 08:54:28;;;;;;;3.00;1.20;;;;;;;8.05;79.91;99708.03;1714226;83;21876;-85
2023/01/05 08:56:56;;;;;;;2.22;1.10;;;;;;;8.03;79.81;99708.40;1713970;83;21061;-84
2023/01/05 08:59:43;;;;;;;4.58;1.77;;;;;;;8.02;79.82;99707.96;1733116;82;21054;-89
2023/01/05 09:02:25;;;;;;;2.40;1.00;;;;;;;8.00;79.79;99723.21;1715622;83;21127;-88
2023/01/05 09:05:07;;;;;;;2.22;1.27;;;;;;;8.00;79.89;99727.14;1691584;83;21065;-88
2023/01/05 09:07:36;;;;;;;2.75;1.42;;;;;;;8.01;79.99;99721.91;1716420;83;21735;-88
2023/01/05 09:10:08;;;;;;;4.42;1.30;;;;;;;8.04;79.97;99720.66;1715363;83;21091;-88
2023/01/05 09:12:35;;;;;;;3.30;1.22;;;;;;;8.05;79.93;99725.06;1715128;82;21075;-84
2023/01/05 09:15:02;;;;;;;3.62;1.30;;;;;;;8.11;80.00;99724.30;1717833;82;22041;-85
2023/01/05 09:17:29;;;;;;;2.80;1.45;;;;;;;8.18;80.00;99732.30;1714961;83;21106;-88
2023/01/05 09:20:10;;;;;;;4.50;1.75;;;;;;;8.24;79.88;99730.21;1715645;83;21464;-88
2023/01/05 09:22:50;;;;;;;3.50;1.65;;;;;;;8.29;79.69;99733.77;1716910;83;21073;-88
2023/01/05 09:25:16;;;;;;;2.92;1.30;;;;;;;8.32;79.58;99736.47;1732986;82;21087;-85
2023/01/05 09:27:43;;;;;;;3.92;1.60;;;;;;;8.37;79.58;99737.44;1716675;82;21092;-85
2023/01/05 09:30:14;;;;;;;2.70;1.40;;;;;;;8.43;79.55;99735.78;1719122;82;21068;-85
2023/01/05 09:32:41;;;;;;;4.15;1.92;;;;;;;8.45;79.41;99730.17;1729715;82;22029;-85
2023/01/05 09:35:08;;;;;;;2.50;1.20;;;;;;;8.47;79.42;99730.64;1715909;83;21021;-85
2023/01/05 09:37:36;;;;;;;3.22;1.70;;;;;;;8.51;79.31;99734.20;1715222;83;21056;-85
2023/01/05 09:40:03;;;;;;;29.40;16.67;;;;;;;8.52;79.21;99731.61;1714603;83;21071;-85
2023/01/05 09:42:35;;;;;;;19.12;10.65;;;;;;;8.57;79.24;99722.48;1715643;83;21143;-85
2023/01/05 09:45:04;;;;;;;16.15;9.83;;;;;;;8.59;79.07;99727.77;1712831;83;21729;-84
2023/01/05 09:47:42;;;;;;;18.70;11.73;;;;;;;8.63;79.12;99733.08;1714936;82;21083;-84
2023/01/05 09:50:19;;;;;;;18.98;12.55;;;;;;;8.67;78.98;99728.36;1717797;82;21153;-85
2023/01/05 09:52:46;;;;;;;48.38;28.87;;;;;;;8.70;78.93;99731.01;1723843;82;21074;-84
2023/01/05 09:55:24;;;;;;;37.08;21.82;;;;;;;8.76;78.97;99731.54;1715626;83;21068;-88
2023/01/05 09:58:30;;;;;;;77.87;35.45;;;;;;;8.79;78.88;99734.66;1715631;83;21961;-88
2023/01/05 10:01:27;;;;;;;20.95;10.80;;;;;;;8.81;78.84;99732.94;1714352;83;21071;-90
2023/01/05 10:04:07;;;;;;;78.95;31.90;;;;;;;8.83;78.81;99743.90;1715776;83;21115;-87
2023/01/05 10:07:08;;;;;;;32.20;17.27;;;;;;;8.82;78.70;99734.69;1714903;83;21051;-88
2023/01/05 10:09:53;;;;;;;14.98;8.63;;;;;;;8.82;78.75;99732.06;1695576;83;21645;-88
2023/01/05 10:13:02;;;;;;;24.80;21.35;;;;;;;8.82;78.81;99731.66;1715382;83;22615;-90
2023/01/05 10:15:42;;;;;;;3.40;2.58;;;;;;;8.80;78.72;99734.66;1715288;83;21584;-87
2023/01/05 10:18:28;;;;;;;4.95;2.92;;;;;;;8.78;78.79;99740.31;1715234;83;21037;-90
2023/01/05 10:21:23;;;;;;;4.55;2.10;;;;;;;8.78;78.87;99739.00;1739555;82;21082;-88
2023/01/05 10:24:41;;;;;;;2.77;1.75;;;;;;;8.78;78.95;99749.94;1719669;82;21084;-90
2023/01/05 10:28:00;;;;;;;3.65;1.55;;;;;;;8.73;78.93;99742.87;1716041;82;21782;-88
2023/01/05 10:30:54;;;;;;;6.47;2.62;;;;;;;8.70;78.98;99736.70;1720815;82;21063;-88
2023/01/05 10:33:57;;;;;;;3.75;1.95;;;;;;;8.65;79.05;99736.63;1710964;83;21066;-89
2023/01/05 10:37:20;;;;;;;4.67;2.35;;;;;;;8.63;79.21;99742.69;1710568;83;21082;-88
2023/01/05 10:40:04;;;;;;;2.83;1.77;;;;;;;8.61;79.31;99742.66;1724534;82;21075;-85
2023/01/05 10:42:37;;;;;;;11.20;6.25;;;;;;;8.54;79.19;99743.00;1711292;82;23310;-87
2023/01/05 10:45:06;;;;;;;5.33;2.83;;;;;;;8.47;79.27;99743.75;1708112;83;21096;-85
2023/01/05 10:47:35;;;;;;;4.97;2.70;;;;;;;8.42;79.37;99746.71;1712863;82;21056;-86
2023/01/05 10:50:02;;;;;;;6.83;2.50;;;;;;;8.40;79.43;99752.77;1711529;82;21273;-86
2023/01/05 10:52:35;;;;;;;3.60;2.10;;;;;;;8.36;79.49;99747.89;1717271;82;21084;-85
2023/01/05 10:55:06;;;;;;;3.17;1.72;;;;;;;8.41;79.55;99750.17;1709489;83;21784;-86
2023/01/05 10:57:36;;;;;;;3.98;1.82;;;;;;;8.46;79.49;99751.59;1706195;83;22031;-85
2023/01/05 11:00:11;;;;;;;4.97;2.47;;;;;;;8.48;79.24;99745.94;1707052;83;21060;-85
2023/01/05 11:02:58;;;;;;;6.97;3.45;;;;;;;8.51;79.22;99735.51;1707825;83;21089;-85
2023/01/05 11:05:38;;;;;;;5.92;2.98;;;;;;;8.61;79.36;99728.67;1707742;83;21084;-85
2023/01/05 11:08:15;;;;;;;5.53;2.90;;;;;;;8.81;79.50;99730.31;1706948;82;21776;-85
2023/01/05 11:11:04;;;;;;;5.87;3.12;;;;;;;8.97;79.49;99730.98;1718340;82;21104;-85
2023/01/05 11:13:36;;;;;;;4.58;2.60;;;;;;;9.10;79.32;99733.36;1723571;82;21055;-85
2023/01/05 11:16:11;;;;;;;5.00;2.85;;;;;;;9.17;78.98;99734.34;1720592;82;21294;-85
2023/01/05 11:18:58;;;;;;;9.65;6.92;;;;;;;9.21;78.93;99736.15;1712293;82;21059;-85
2023/01/05 11:21:38;;;;;;;4.37;2.30;;;;;;;9.25;78.76;99744.11;1705790;82;21876;-85
2023/01/05 11:24:25;;;;;;;4.55;2.25;;;;;;;9.20;78.03;99743.16;1708053;83;21083;-85
2023/01/05 11:26:55;;;;;;;3.45;2.08;;;;;;;9.16;77.93;99743.98;1695270;83;21143;-85
2023/01/05 11:29:22;;;;;;;4.67;2.33;;;;;;;9.19;77.63;99753.62;1716871;82;21074;-85
2023/01/05 11:32:05;;;;;;;3.42;2.02;;;;;;;9.17;77.50;99749.66;1720318;82;21086;-85
2023/01/05 11:34:46;;;;;;;4.55;1.55;;;;;;;9.13;76.99;99764.92;1687558;83;22017;-85
2023/01/05 11:37:25;;;;;;;3.60;1.60;;;;;;;8.99;76.74;99765.13;1708388;83;21045;-86
2023/01/05 11:40:02;;;;;;;5.65;2.30;;;;;;;8.91;76.41;99768.95;1697012;83;21607;-87
2023/01/05 11:42:33;;;;;;;3.20;1.90;;;;;;;8.82;76.59;99774.95;1721978;82;21072;-85
2023/01/05 11:45:30;;;;;;;6.75;1.85;;;;;;;8.81;76.71;99794.16;1700326;82;21437;-85
2023/01/05 11:48:04;;;;;;;4.42;2.20;;;;;;;8.76;76.91;99794.51;1707116;82;21800;-88
2023/01/05 11:50:39;;;;;;;;;;;;;;;8.68;76.91;99797.00;1698509;81;21039;-85
2023/01/05 11:53:10;;;;;;;5.70;2.22;;;;;;;8.58;76.72;99800.34;1709439;83;20292;-85
2023/01/05 11:55:38;;;;;;;5.12;2.70;;;;;;;8.47;76.94;99808.00;1655933;83;21086;-86
2023/01/05 11:58:34;;;;;;;4.80;2.30;;;;;;;8.36;76.75;99816.06;1715156;83;21127;-85
2023/01/05 12:01:41;;;;;;;3.65;1.57;;;;;;;8.20;76.73;99820.55;1741914;82;21367;-89
2023/01/05 12:04:45;;;;;;;3.30;1.57;;;;;;;8.05;76.70;99817.20;1702327;83;21043;-90
2023/01/05 12:07:35;;;;;;;2.47;1.40;;;;;;;7.87;76.67;99822.53;1635897;87;28934;-88
2023/01/05 12:10:48;;;;;;;3.08;1.72;;;;;;;7.72;76.75;99822.20;1701352;83;21039;-88
2023/01/05 12:13:45;;;;;;;2.37;1.25;;;;;;;7.70;77.11;99834.39;1715387;83;21273;-88
2023/01/05 12:16:47;;;;;;;2.02;1.60;;;;;;;7.62;77.00;99832.92;1716043;83;22499;-89
2023/01/05 12:19:52;;;;;;;2.67;1.27;;;;;;;7.67;77.45;99831.70;1725160;82;21075;-84
2023/01/05 12:22:50;;;;;;;2.62;1.27;;;;;;;7.68;77.05;99842.64;1647754;85;21079;-90
2023/01/05 12:25:48;;;;;;;5.17;1.67;;;;;;;7.63;77.11;99854.31;1590336;89;21134;-90
2023/01/05 12:28:48;;;;;;;4.10;1.82;;;;;;;7.62;77.16;99849.94;1594118;89;21080;-88
2023/01/05 12:31:27;;;;;;;2.67;1.40;;;;;;;7.67;77.21;99857.45;1599125;89;22623;-86
2023/01/05 12:34:17;;;;;;;2.60;1.35;;;;;;;7.81;77.19;99847.30;1625219;87;21183;-87
2023/01/05 12:37:18;;;;;;;2.55;1.50;;;;;;;8.00;77.29;99861.67;1657223;86;21099;-89
2023/01/05 12:40:05;;;;;;;1.80;1.15;;;;;;;8.08;76.62;99862.70;1658053;86;21087;-86
2023/01/05 12:42:51;;;;;;;1.70;1.10;;;;;;;8.05;76.25;99862.66;1659923;85;21147;-84
2023/01/05 12:45:37;;;;;;;2.60;1.30;;;;;;;8.08;76.42;99866.64;1655646;86;22529;-89
2023/01/05 12:51:36;;;;;;;3.17;1.20;;;;;;;7.79;75.47;99878.70;1655528;86;21104;-86
2023/01/05 12:54:30;;;;;;;2.25;1.12;;;;;;;7.62;75.77;99878.75;1656097;86;21649;-86
2023/01/05 12:57:04;;;;;;;2.52;1.27;;;;;;;7.59;75.88;99886.09;1650820;86;21108;-88
2023/01/05 13:00:03;;;;;;;2.25;1.15;;;;;;;7.59;76.08;99897.88;1650600;86;22610;-89
2023/01/05 13:02:56;;;;;;;1.90;1.40;;;;;;;7.57;75.99;99898.27;1669317;85;21019;-90